createdAt,value
2022-11-24T00:01:21.051Z,67.34
2022-11-24T00:04:24.059Z,67.11
2022-11-24T00:07:25.551Z,66.95
2022-11-24T00:10:26.960Z,66.77
2022-11-24T00:13:28.396Z,67.24
2022-11-24T00:16:32.151Z,67.01
2022-11-24T00:19:33.563Z,67.13
2022-11-24T00:22:34.970Z,67.08
2022-11-24T00:25:36.564Z,67.41
2022-11-24T00:28:38.692Z,68.22
2022-11-24T00:31:41.882Z,67.55
2022-11-24T00:34:43.295Z,67.47
2022-11-24T00:37:44.699Z,67.84
2022-11-24T00:40:46.099Z,67.56
2022-11-24T00:43:47.517Z,67.18
2022-11-24T00:46:49.084Z,66.30
2022-11-24T00:49:50.607Z,66.98
2022-11-24T00:52:52.014Z,66.51
2022-11-24T00:55:53.987Z,67.20
2022-11-24T00:58:55.476Z,66.63
2022-11-24T01:01:56.918Z,66.93
2022-11-24T01:04:58.492Z,66.59
2022-11-24T01:07:59.925Z,66.87
2022-11-24T01:11:14.173Z,66.51
2022-11-24T01:14:15.569Z,66.76
2022-11-24T01:17:17.137Z,67.28
2022-11-24T01:20:18.570Z,66.53
2022-11-24T01:23:20.010Z,66.20
2022-11-24T01:26:22.219Z,66.99
2022-11-24T01:29:23.863Z,66.86
2022-11-24T01:32:25.301Z,67.08
2022-11-24T01:35:28.086Z,66.60
2022-11-24T01:38:29.722Z,67.11
2022-11-24T01:41:31.279Z,67.33
2022-11-24T01:44:33.619Z,67.08
2022-11-24T01:47:40.704Z,67.27
2022-11-24T01:50:43.147Z,66.89
2022-11-24T01:53:47.597Z,66.67
2022-11-24T01:56:53.683Z,66.85
2022-11-24T02:00:02.112Z,66.72
2022-11-24T02:03:19.243Z,67.95
2022-11-24T02:06:27.869Z,68.69
2022-11-24T02:09:55.739Z,68.35
2022-11-24T02:12:59.518Z,68.62
2022-11-24T02:16:02.299Z,68.19
2022-11-24T02:19:12.855Z,68.33
2022-11-24T02:22:41.017Z,68.13
2022-11-24T02:26:20.876Z,68.09
2022-11-24T02:29:22.460Z,68.27
2022-11-24T02:32:24.101Z,68.19
2022-11-24T02:35:27.393Z,68.38
2022-11-24T02:38:31.094Z,67.79
2022-11-24T02:41:32.521Z,67.73
2022-11-24T02:44:40.406Z,67.64
2022-11-24T02:47:41.926Z,68.25
2022-11-24T02:50:43.441Z,67.85
2022-11-24T02:53:45.243Z,68.51
2022-11-24T02:56:46.692Z,68.65
2022-11-24T02:59:48.086Z,69.46
2022-11-24T03:02:49.682Z,68.95
2022-11-24T03:05:51.242Z,68.42
2022-11-24T03:08:52.632Z,68.46
2022-11-24T03:11:54.044Z,67.39
2022-11-24T03:14:55.496Z,67.25
2022-11-24T03:17:56.994Z,66.95
2022-11-24T03:21:01.371Z,66.88
2022-11-24T03:24:02.855Z,66.50
2022-11-24T03:27:04.677Z,66.42
2022-11-24T03:30:06.809Z,65.38
2022-11-24T03:33:08.295Z,64.73
2022-11-24T03:36:09.988Z,65.03
2022-11-24T03:39:11.438Z,64.64
2022-11-24T03:42:12.979Z,64.89
2022-11-24T03:45:45.542Z,65.20
2022-11-24T03:48:36.246Z,65.46
2022-11-24T03:51:37.696Z,66.30
2022-11-24T03:54:39.156Z,66.77
2022-11-24T03:57:40.560Z,67.11
2022-11-24T04:00:42.203Z,66.90
2022-11-24T04:03:43.841Z,67.41
2022-11-24T04:06:45.250Z,66.66
2022-11-24T04:09:46.710Z,66.92
2022-11-24T04:12:48.126Z,66.91
2022-11-24T04:15:49.855Z,67.57
2022-11-24T04:18:54.567Z,68.59
2022-11-24T04:21:56.056Z,69.47
2022-11-24T04:24:57.464Z,70.19
2022-11-24T04:27:58.986Z,70.80
2022-11-24T04:31:04.570Z,70.98
2022-11-24T04:34:06.052Z,70.94
2022-11-24T04:37:07.447Z,71.12
2022-11-24T04:40:10.846Z,71.06
2022-11-24T04:43:12.347Z,70.73
2022-11-24T04:46:13.833Z,71.56
2022-11-24T04:49:15.322Z,72.30
2022-11-24T04:52:19.462Z,71.82
2022-11-24T04:55:21.012Z,72.02
2022-11-24T04:58:22.422Z,71.89
2022-11-24T05:01:23.892Z,71.93
2022-11-24T05:04:25.445Z,71.84
2022-11-24T05:07:27.501Z,71.93
2022-11-24T05:10:37.954Z,71.39
2022-11-24T05:13:39.383Z,71.29
2022-11-24T05:16:40.854Z,71.59
2022-11-24T05:19:42.544Z,71.30
2022-11-24T05:22:44.267Z,71.40
2022-11-24T05:25:47.779Z,70.74
2022-11-24T05:28:49.465Z,70.79
2022-11-24T05:31:50.903Z,70.07
2022-11-24T05:34:53.872Z,70.28
2022-11-24T05:37:55.343Z,70.42
2022-11-24T05:41:05.167Z,70.27
2022-11-24T05:44:06.745Z,69.90
2022-11-24T05:47:08.179Z,70.41
2022-11-24T05:50:12.679Z,70.34
2022-11-24T05:53:14.212Z,70.35
2022-11-24T05:56:15.618Z,71.28
2022-11-24T05:59:17.059Z,71.65
2022-11-24T06:02:19.156Z,72.35
2022-11-24T06:05:20.750Z,73.21
2022-11-24T06:08:25.542Z,73.41
2022-11-24T06:11:29.556Z,73.98
2022-11-24T06:14:31.035Z,74.22
2022-11-24T06:17:32.517Z,74.40
2022-11-24T06:20:33.961Z,74.27
2022-11-24T06:23:35.946Z,74.16
2022-11-24T06:26:37.335Z,74.34
2022-11-24T06:29:39.181Z,74.34
2022-11-24T06:32:49.177Z,73.87
2022-11-24T06:35:51.174Z,74.04
2022-11-24T06:38:53.085Z,73.80
2022-11-24T06:41:54.534Z,73.44
2022-11-24T06:44:55.994Z,73.57
2022-11-24T06:47:57.749Z,72.62
2022-11-24T06:51:00.629Z,73.53
2022-11-24T06:54:02.373Z,74.17
2022-11-24T06:57:03.856Z,74.50
2022-11-24T07:00:07.915Z,74.91
2022-11-24T07:03:16.263Z,74.94
2022-11-24T07:06:19.028Z,75.97
2022-11-24T07:09:20.431Z,75.65
2022-11-24T07:12:21.968Z,76.12
2022-11-24T07:15:23.348Z,76.79
2022-11-24T07:18:24.744Z,76.16
2022-11-24T07:21:28.080Z,75.18
2022-11-24T07:24:29.503Z,75.46
2022-11-24T07:27:30.935Z,74.81
2022-11-24T07:30:32.372Z,74.84
2022-11-24T07:33:34.230Z,75.11
2022-11-24T07:36:35.709Z,74.62
2022-11-24T07:39:37.193Z,74.00
2022-11-24T07:42:38.606Z,73.81
2022-11-24T07:45:40.057Z,73.66
2022-11-24T07:48:41.504Z,73.48
2022-11-24T07:51:42.896Z,74.29
2022-11-24T07:54:44.337Z,73.41
2022-11-24T07:57:45.766Z,73.19
2022-11-24T08:00:47.606Z,73.68
2022-11-24T08:03:49.072Z,73.96
2022-11-24T08:06:50.681Z,73.65
2022-11-24T08:09:52.332Z,73.33
2022-11-24T08:12:53.783Z,73.10
2022-11-24T08:15:55.211Z,73.34
2022-11-24T08:18:56.760Z,73.59
2022-11-24T08:21:58.135Z,74.33
2022-11-24T08:24:59.592Z,74.59
2022-11-24T08:28:02.752Z,73.94
2022-11-24T08:31:06.060Z,73.69
2022-11-24T08:34:07.580Z,73.90
2022-11-24T08:37:08.971Z,73.58
2022-11-24T08:40:11.216Z,73.45
2022-11-24T08:43:12.682Z,73.94
2022-11-24T08:46:18.887Z,73.22
2022-11-24T08:49:21.551Z,72.63
2022-11-24T08:52:23.046Z,73.08
2022-11-24T08:55:24.489Z,73.30
2022-11-24T08:58:25.871Z,73.37
2022-11-24T09:01:28.911Z,73.08
2022-11-24T09:04:30.471Z,73.22
2022-11-24T09:07:31.947Z,73.24
2022-11-24T09:10:33.394Z,73.02
2022-11-24T09:13:35.729Z,72.81
2022-11-24T09:16:37.173Z,72.13
2022-11-24T09:19:38.577Z,72.10
2022-11-24T09:22:41.617Z,72.51
2022-11-24T09:25:43.103Z,71.85
2022-11-24T09:28:45.699Z,71.98
2022-11-24T09:31:47.081Z,72.24
2022-11-24T09:34:50.780Z,71.65
2022-11-24T09:37:52.260Z,71.85
2022-11-24T09:40:56.554Z,71.24
2022-11-24T09:44:06.252Z,72.21
2022-11-24T09:47:41.872Z,70.98
2022-11-24T09:50:46.021Z,71.22
2022-11-24T09:53:54.923Z,70.77
2022-11-24T09:57:00.776Z,69.84
2022-11-24T10:00:10.870Z,69.46
2022-11-24T10:03:23.464Z,70.01
2022-11-24T10:06:44.525Z,69.80
2022-11-24T10:10:00.824Z,69.97
2022-11-24T10:13:30.690Z,70.18
2022-11-24T10:16:51.664Z,70.16
2022-11-24T10:20:14.975Z,69.42
2022-11-24T10:23:39.844Z,69.02
2022-11-24T10:26:51.386Z,68.83
2022-11-24T10:29:52.961Z,68.63
2022-11-24T10:33:02.637Z,67.97
2022-11-24T10:36:12.897Z,68.37
2022-11-24T10:39:23.709Z,67.56
2022-11-24T10:42:29.414Z,67.74
2022-11-24T10:45:32.012Z,68.14
2022-11-24T10:48:40.367Z,66.93
2022-11-24T10:51:52.783Z,66.33
2022-11-24T10:54:55.727Z,66.61
2022-11-24T10:58:15.593Z,66.59
2022-11-24T11:01:16.939Z,64.95
2022-11-24T11:04:21.314Z,65.10
2022-11-24T11:07:25.558Z,64.20
2022-11-24T11:10:27.045Z,64.39
2022-11-24T11:13:30.458Z,65.75
2022-11-24T11:16:39.240Z,64.71
2022-11-24T11:19:49.563Z,64.88
2022-11-24T11:22:51.688Z,64.45
2022-11-24T11:26:27.715Z,64.17
2022-11-24T11:36:17.339Z,61.57
2022-11-24T11:39:24.761Z,59.96
2022-11-24T11:43:02.242Z,59.63
2022-11-24T11:46:17.607Z,56.94
2022-11-24T11:49:19.234Z,55.92
2022-11-24T11:52:54.695Z,55.95
2022-11-24T11:56:08.280Z,56.50
2022-11-24T12:00:03.615Z,56.26
2022-11-24T12:03:32.576Z,54.87
2022-11-24T12:06:59.323Z,54.17
2022-11-24T12:10:19.509Z,53.34
2022-11-24T12:13:32.964Z,53.29
2022-11-24T12:16:54.913Z,52.79
2022-11-24T12:19:58.976Z,54.49
2022-11-24T12:24:04.168Z,54.50
2022-11-24T12:27:10.729Z,53.74
2022-11-24T12:30:17.275Z,54.49
2022-11-24T12:33:50.501Z,52.29
2022-11-24T12:37:26.541Z,52.43
2022-11-24T12:40:35.648Z,53.95
2022-11-24T12:43:40.167Z,52.65
2022-11-24T12:47:08.697Z,52.57
2022-11-24T12:50:16.240Z,52.61
2022-11-24T12:53:28.432Z,53.74
2022-11-24T12:56:42.466Z,53.04
2022-11-24T13:00:16.046Z,52.97
2022-11-24T13:04:08.186Z,54.58
2022-11-24T13:07:14.748Z,53.16
2022-11-24T13:14:28.120Z,52.75
2022-11-24T13:17:36.336Z,54.16
2022-11-24T13:20:44.877Z,53.10
2022-11-24T13:23:59.889Z,53.70
2022-11-24T13:27:13.462Z,53.19
2022-11-24T13:30:33.106Z,53.81
2022-11-24T13:33:35.615Z,53.49
2022-11-24T13:36:52.522Z,53.07
2022-11-24T13:40:03.015Z,52.53
2022-11-24T13:43:04.430Z,53.77
2022-11-24T13:46:09.607Z,53.03
2022-11-24T13:49:14.138Z,52.78
2022-11-24T13:52:34.668Z,52.58
2022-11-24T13:55:38.966Z,52.01
2022-11-24T13:58:43.665Z,52.31
2022-11-24T14:01:46.758Z,52.93
2022-11-24T14:04:48.802Z,51.92
2022-11-24T14:07:52.932Z,53.00
2022-11-24T14:11:00.181Z,53.43
2022-11-24T14:14:15.959Z,53.13
2022-11-24T14:17:23.597Z,53.16
2022-11-24T14:20:27.263Z,53.28
2022-11-24T14:23:28.817Z,53.79
2022-11-24T14:26:40.998Z,54.48
2022-11-24T14:30:15.349Z,54.19
2022-11-24T14:33:19.718Z,55.41
2022-11-24T14:36:21.149Z,56.03
2022-11-24T14:39:25.295Z,55.29
2022-11-24T14:42:27.559Z,55.03
2022-11-24T14:45:29.081Z,56.85
2022-11-24T14:48:33.379Z,56.71
2022-11-24T14:51:43.166Z,56.29
2022-11-24T14:54:48.280Z,57.55
2022-11-24T14:57:49.819Z,58.61
2022-11-24T15:01:32.503Z,57.25
2022-11-24T15:08:03.424Z,58.66
2022-11-24T15:11:06.341Z,59.70
2022-11-24T15:14:47.582Z,60.75
2022-11-24T15:17:59.129Z,58.51
2022-11-24T15:21:00.907Z,61.32
2022-11-24T15:24:07.130Z,62.07
2022-11-24T15:27:08.634Z,62.69
2022-11-24T15:30:12.422Z,63.10
2022-11-24T15:33:16.561Z,63.25
2022-11-24T15:36:19.431Z,63.14
2022-11-24T15:39:20.845Z,63.38
2022-11-24T15:42:22.220Z,64.22
2022-11-24T15:45:26.319Z,64.92
2022-11-24T15:48:28.951Z,64.57
2022-11-24T15:51:31.559Z,65.35
2022-11-24T15:54:33.383Z,65.25
2022-11-24T15:57:35.032Z,64.88
2022-11-24T16:00:37.701Z,65.56
2022-11-24T16:03:46.787Z,65.81
2022-11-24T16:06:49.103Z,65.86
2022-11-24T16:09:50.529Z,66.40
2022-11-24T16:12:51.924Z,66.45
2022-11-24T16:15:53.670Z,66.91
2022-11-24T16:18:55.272Z,66.96
2022-11-24T16:21:56.756Z,66.93
2022-11-24T16:24:58.242Z,67.11
2022-11-24T16:27:59.720Z,67.15
2022-11-24T16:31:01.218Z,67.39
2022-11-24T16:34:02.685Z,67.73
2022-11-24T16:37:04.121Z,67.46
2022-11-24T16:40:06.317Z,67.39
2022-11-24T16:43:07.722Z,67.26
2022-11-24T16:46:09.144Z,66.65
2022-11-24T16:49:10.600Z,66.89
2022-11-24T16:52:12.156Z,67.62
2022-11-24T16:55:14.209Z,67.65
2022-11-24T16:58:15.624Z,68.11
2022-11-24T17:01:17.115Z,67.73
2022-11-24T17:04:18.574Z,67.21
2022-11-24T17:07:20.538Z,67.18
2022-11-24T17:10:22.013Z,66.63
2022-11-24T17:13:24.376Z,66.23
2022-11-24T17:16:25.971Z,67.01
2022-11-24T17:19:27.408Z,67.02
2022-11-24T17:22:28.811Z,67.02
2022-11-24T17:25:32.011Z,67.55
2022-11-24T17:28:34.088Z,66.60
2022-11-24T17:31:36.111Z,66.57
2022-11-24T17:34:37.799Z,65.59
2022-11-24T17:37:39.233Z,65.67
2022-11-24T17:40:45.667Z,65.92
2022-11-24T17:43:55.718Z,66.58
2022-11-24T17:46:58.809Z,66.98
2022-11-24T17:50:00.288Z,66.41
2022-11-24T17:53:01.768Z,66.03
2022-11-24T17:56:04.399Z,66.02
2022-11-24T17:59:05.905Z,65.88
2022-11-24T18:02:09.382Z,66.12
2022-11-24T18:05:10.901Z,66.03
2022-11-24T18:08:12.324Z,65.78
2022-11-24T18:11:38.172Z,66.31
2022-11-24T18:14:39.634Z,66.39
2022-11-24T18:17:41.025Z,66.71
2022-11-24T18:20:42.506Z,66.26
2022-11-24T18:23:44.756Z,66.67
2022-11-24T18:26:46.224Z,66.94
2022-11-24T18:29:52.022Z,66.68
2022-11-24T18:32:58.242Z,66.11
2022-11-24T18:36:01.463Z,66.68
2022-11-24T18:39:05.746Z,66.36
2022-11-24T18:42:07.233Z,67.15
2022-11-24T18:45:09.076Z,66.43
2022-11-24T18:48:10.521Z,66.31
2022-11-24T18:51:15.861Z,66.66
2022-11-24T18:54:17.430Z,66.10
2022-11-24T18:57:18.991Z,67.13
2022-11-24T19:00:20.607Z,67.36
2022-11-24T19:03:22.224Z,67.22
2022-11-24T19:06:32.909Z,66.06
2022-11-24T19:09:34.443Z,66.71
2022-11-24T19:12:35.918Z,66.86
2022-11-24T19:15:37.302Z,66.78
2022-11-24T19:18:38.799Z,66.08
2022-11-24T19:21:40.911Z,66.63
2022-11-24T19:24:42.567Z,65.97
2022-11-24T19:27:44.024Z,65.67
2022-11-24T19:30:45.438Z,65.26
2022-11-24T19:33:47.254Z,65.71
2022-11-24T19:36:48.773Z,67.51
2022-11-24T19:39:50.995Z,65.83
2022-11-24T19:42:53.359Z,65.88
2022-11-24T19:45:55.249Z,65.51
2022-11-24T19:49:00.305Z,66.42
2022-11-24T19:52:02.506Z,66.17
2022-11-24T19:55:07.188Z,67.38
2022-11-24T19:58:09.040Z,66.19
2022-11-24T20:01:34.168Z,65.94
2022-11-24T20:04:39.587Z,65.29
2022-11-24T20:07:41.108Z,65.49
2022-11-24T20:10:42.654Z,65.37
2022-11-24T20:13:45.436Z,65.46
2022-11-24T20:16:47.572Z,65.37
2022-11-24T20:19:49.046Z,65.71
2022-11-24T20:22:50.427Z,65.63
2022-11-24T20:25:51.878Z,65.65
2022-11-24T20:28:55.188Z,65.80
2022-11-24T20:31:56.950Z,65.66
2022-11-24T20:34:58.497Z,66.44
2022-11-24T20:37:59.896Z,65.74
2022-11-24T20:41:09.192Z,65.50
2022-11-24T20:44:15.327Z,66.23
2022-11-24T20:47:17.046Z,66.07
2022-11-24T20:50:18.570Z,66.36
2022-11-24T20:53:20.114Z,66.92
2022-11-24T20:56:23.746Z,67.29
2022-11-24T20:59:25.742Z,67.07
2022-11-24T21:02:27.322Z,67.26
2022-11-24T21:05:28.773Z,67.14
2022-11-24T21:08:38.567Z,68.34
2022-11-24T21:11:40.086Z,68.66
2022-11-24T21:14:41.679Z,67.46
2022-11-24T21:17:43.167Z,66.94
2022-11-24T21:20:45.111Z,67.26
2022-11-24T21:23:47.724Z,67.61
2022-11-24T21:26:51.681Z,67.42
2022-11-24T21:29:53.439Z,68.19
2022-11-24T21:32:54.953Z,67.86
2022-11-24T21:36:02.334Z,67.18
2022-11-24T21:39:04.092Z,67.25
2022-11-24T21:42:05.783Z,67.04
2022-11-24T21:45:10.678Z,67.00
2022-11-24T21:48:12.212Z,67.88
2022-11-24T21:51:16.527Z,68.34
2022-11-24T21:54:17.939Z,68.80
2022-11-24T21:57:19.323Z,68.75
2022-11-24T22:00:20.869Z,68.45
2022-11-24T22:03:22.379Z,67.46
2022-11-24T22:06:24.054Z,68.09
2022-11-24T22:09:25.491Z,68.26
2022-11-24T22:12:28.525Z,67.24
2022-11-24T22:15:30.010Z,67.13
2022-11-24T22:18:37.856Z,66.84
2022-11-24T22:21:39.293Z,67.43
2022-11-24T22:24:41.203Z,67.07
2022-11-24T22:27:42.834Z,67.15
2022-11-24T22:30:44.305Z,67.69
2022-11-24T22:33:46.535Z,67.06
2022-11-24T22:36:48.084Z,67.51
2022-11-24T22:39:49.716Z,68.15
2022-11-24T22:42:51.164Z,67.63
2022-11-24T22:45:52.600Z,67.51
2022-11-24T22:48:54.862Z,67.92
2022-11-24T22:51:56.287Z,68.58
2022-11-24T22:54:57.669Z,68.94
2022-11-24T22:57:59.083Z,68.27
2022-11-24T23:01:12.179Z,67.86
2022-11-24T23:04:13.655Z,68.16
2022-11-24T23:07:15.340Z,67.96
2022-11-24T23:10:16.918Z,68.53
2022-11-24T23:13:18.372Z,68.87
2022-11-24T23:16:20.628Z,68.84
2022-11-24T23:19:22.048Z,70.32
2022-11-24T23:22:23.479Z,69.24
2022-11-24T23:25:24.874Z,68.86
2022-11-24T23:28:26.340Z,69.05
2022-11-24T23:31:31.233Z,69.51
2022-11-24T23:34:32.880Z,69.10
2022-11-24T23:37:59.989Z,68.62
2022-11-24T23:40:56.876Z,68.54
2022-11-24T23:43:58.687Z,68.30
2022-11-24T23:47:00.069Z,68.71
2022-11-24T23:50:01.459Z,68.08
2022-11-24T23:53:02.872Z,68.02
2022-11-24T23:56:05.071Z,68.16
2022-11-24T23:59:06.475Z,68.49
